sensor_id;sensor_type;location;lat;lon;timestamp;P1;durP1;ratioP1;P2;durP2;ratioP2
17175;SDS011;8703;48.996;9.594;2023-04-24T00:01:26;0.50;;;0.50;;
17175;SDS011;8703;48.996;9.594;2023-04-24T00:03:54;0.10;;;0.10;;
17175;SDS011;8703;48.996;9.594;2023-04-24T00:06:24;0.20;;;0.20;;
17175;SDS011;8703;48.996;9.594;2023-04-24T00:08:58;0.30;;;0.30;;
17175;SDS011;8703;48.996;9.594;2023-04-24T00:11:26;0.10;;;0.10;;
17175;SDS011;8703;48.996;9.594;2023-04-24T00:13:53;0.10;;;0.10;;
17175;SDS011;8703;48.996;9.594;2023-04-24T00:16:22;0.10;;;0.10;;
17175;SDS011;8703;48.996;9.594;2023-04-24T00:18:50;0.20;;;0.20;;
17175;SDS011;8703;48.996;9.594;2023-04-24T00:21:17;0.20;;;0.20;;
17175;SDS011;8703;48.996;9.594;2023-04-24T00:23:45;0.20;;;0.20;;
17175;SDS011;8703;48.996;9.594;2023-04-24T00:26:13;0.20;;;0.20;;
17175;SDS011;8703;48.996;9.594;2023-04-24T00:28:40;0.20;;;0.20;;
17175;SDS011;8703;48.996;9.594;2023-04-24T00:31:08;0.20;;;0.20;;
17175;SDS011;8703;48.996;9.594;2023-04-24T00:33:37;0.20;;;0.20;;
17175;SDS011;8703;48.996;9.594;2023-04-24T00:36:05;0.20;;;0.20;;
17175;SDS011;8703;48.996;9.594;2023-04-24T00:38:32;0.20;;;0.20;;
17175;SDS011;8703;48.996;9.594;2023-04-24T00:41:00;0.10;;;0.10;;
17175;SDS011;8703;48.996;9.594;2023-04-24T00:43:27;0.10;;;0.10;;
17175;SDS011;8703;48.996;9.594;2023-04-24T00:45:54;0.10;;;0.10;;
17175;SDS011;8703;48.996;9.594;2023-04-24T00:48:22;0.20;;;0.20;;
17175;SDS011;8703;48.996;9.594;2023-04-24T00:50:51;0.10;;;0.10;;
17175;SDS011;8703;48.996;9.594;2023-04-24T00:53:19;0.20;;;0.20;;
17175;SDS011;8703;48.996;9.594;2023-04-24T00:55:46;0.10;;;0.10;;
17175;SDS011;8703;48.996;9.594;2023-04-24T00:58:14;0.30;;;0.30;;
17175;SDS011;8703;48.996;9.594;2023-04-24T01:00:41;0.10;;;0.10;;
17175;SDS011;8703;48.996;9.594;2023-04-24T01:03:10;0.20;;;0.20;;
17175;SDS011;8703;48.996;9.594;2023-04-24T01:05:38;0.20;;;0.20;;
17175;SDS011;8703;48.996;9.594;2023-04-24T01:08:07;0.20;;;0.20;;
17175;SDS011;8703;48.996;9.594;2023-04-24T01:10:35;0.20;;;0.20;;
17175;SDS011;8703;48.996;9.594;2023-04-24T01:13:04;0.20;;;0.20;;
17175;SDS011;8703;48.996;9.594;2023-04-24T01:15:32;0.10;;;0.10;;
17175;SDS011;8703;48.996;9.594;2023-04-24T01:17:59;0.20;;;0.20;;
17175;SDS011;8703;48.996;9.594;2023-04-24T01:20:27;0.20;;;0.20;;
17175;SDS011;8703;48.996;9.594;2023-04-24T01:22:56;0.20;;;0.20;;
17175;SDS011;8703;48.996;9.594;2023-04-24T01:25:24;0.20;;;0.20;;
17175;SDS011;8703;48.996;9.594;2023-04-24T01:27:52;0.20;;;0.20;;
17175;SDS011;8703;48.996;9.594;2023-04-24T01:30:20;0.20;;;0.20;;
17175;SDS011;8703;48.996;9.594;2023-04-24T01:32:48;0.20;;;0.20;;
17175;SDS011;8703;48.996;9.594;2023-04-24T01:35:15;0.20;;;0.20;;
17175;SDS011;8703;48.996;9.594;2023-04-24T01:37:43;0.20;;;0.20;;
17175;SDS011;8703;48.996;9.594;2023-04-24T01:40:11;0.10;;;0.10;;
17175;SDS011;8703;48.996;9.594;2023-04-24T01:42:40;0.20;;;0.20;;
17175;SDS011;8703;48.996;9.594;2023-04-24T01:45:08;0.30;;;0.30;;
17175;SDS011;8703;48.996;9.594;2023-04-24T01:47:37;0.20;;;0.20;;
17175;SDS011;8703;48.996;9.594;2023-04-24T01:50:06;0.10;;;0.10;;
17175;SDS011;8703;48.996;9.594;2023-04-24T01:52:34;0.30;;;0.30;;
17175;SDS011;8703;48.996;9.594;2023-04-24T01:55:01;0.10;;;0.10;;
17175;SDS011;8703;48.996;9.594;2023-04-24T01:57:31;0.20;;;0.20;;
17175;SDS011;8703;48.996;9.594;2023-04-24T01:59:59;0.10;;;0.10;;
17175;SDS011;8703;48.996;9.594;2023-04-24T02:02:29;0.20;;;0.20;;
17175;SDS011;8703;48.996;9.594;2023-04-24T02:04:56;0.20;;;0.20;;
17175;SDS011;8703;48.996;9.594;2023-04-24T02:07:24;0.13;;;0.13;;
17175;SDS011;8703;48.996;9.594;2023-04-24T02:09:51;0.10;;;0.10;;
17175;SDS011;8703;48.996;9.594;2023-04-24T02:12:20;0.10;;;0.10;;
17175;SDS011;8703;48.996;9.594;2023-04-24T02:14:49;0.20;;;0.20;;
17175;SDS011;8703;48.996;9.594;2023-04-24T02:17:16;0.10;;;0.10;;
17175;SDS011;8703;48.996;9.594;2023-04-24T02:19:44;0.20;;;0.20;;
17175;SDS011;8703;48.996;9.594;2023-04-24T02:22:11;0.20;;;0.20;;
17175;SDS011;8703;48.996;9.594;2023-04-24T02:24:38;0.20;;;0.20;;
17175;SDS011;8703;48.996;9.594;2023-04-24T02:27:06;0.20;;;0.20;;
17175;SDS011;8703;48.996;9.594;2023-04-24T02:29:33;0.20;;;0.20;;
17175;SDS011;8703;48.996;9.594;2023-04-24T02:32:02;0.20;;;0.20;;
17175;SDS011;8703;48.996;9.594;2023-04-24T02:34:29;0.30;;;0.30;;
17175;SDS011;8703;48.996;9.594;2023-04-24T02:36:56;0.20;;;0.20;;
17175;SDS011;8703;48.996;9.594;2023-04-24T02:39:24;0.20;;;0.20;;
17175;SDS011;8703;48.996;9.594;2023-04-24T02:41:51;0.20;;;0.20;;
17175;SDS011;8703;48.996;9.594;2023-04-24T02:44:19;0.13;;;0.13;;
17175;SDS011;8703;48.996;9.594;2023-04-24T02:46:46;0.20;;;0.20;;
17175;SDS011;8703;48.996;9.594;2023-04-24T02:49:15;0.30;;;0.30;;
17175;SDS011;8703;48.996;9.594;2023-04-24T02:51:42;0.10;;;0.10;;
17175;SDS011;8703;48.996;9.594;2023-04-24T02:54:10;0.20;;;0.20;;
17175;SDS011;8703;48.996;9.594;2023-04-24T02:56:37;0.50;;;0.50;;
17175;SDS011;8703;48.996;9.594;2023-04-24T02:59:04;0.30;;;0.30;;
17175;SDS011;8703;48.996;9.594;2023-04-24T03:01:32;0.33;;;0.33;;
17175;SDS011;8703;48.996;9.594;2023-04-24T03:03:59;0.17;;;0.17;;
17175;SDS011;8703;48.996;9.594;2023-04-24T03:06:28;0.27;;;0.27;;
17175;SDS011;8703;48.996;9.594;2023-04-24T03:08:56;0.10;;;0.10;;
17175;SDS011;8703;48.996;9.594;2023-04-24T03:11:23;0.20;;;0.20;;
17175;SDS011;8703;48.996;9.594;2023-04-24T03:13:51;0.20;;;0.20;;
17175;SDS011;8703;48.996;9.594;2023-04-24T03:16:18;0.20;;;0.20;;
17175;SDS011;8703;48.996;9.594;2023-04-24T03:18:45;0.20;;;0.20;;
17175;SDS011;8703;48.996;9.594;2023-04-24T03:21:13;0.27;;;0.27;;
17175;SDS011;8703;48.996;9.594;2023-04-24T03:23:41;0.20;;;0.20;;
17175;SDS011;8703;48.996;9.594;2023-04-24T03:26:09;0.10;;;0.10;;
17175;SDS011;8703;48.996;9.594;2023-04-24T03:28:36;0.20;;;0.20;;
17175;SDS011;8703;48.996;9.594;2023-04-24T03:31:04;0.20;;;0.20;;
17175;SDS011;8703;48.996;9.594;2023-04-24T03:33:31;0.10;;;0.10;;
17175;SDS011;8703;48.996;9.594;2023-04-24T03:35:58;0.20;;;0.20;;
17175;SDS011;8703;48.996;9.594;2023-04-24T03:38:26;0.20;;;0.20;;
17175;SDS011;8703;48.996;9.594;2023-04-24T03:40:54;0.10;;;0.10;;
17175;SDS011;8703;48.996;9.594;2023-04-24T03:43:22;0.20;;;0.20;;
17175;SDS011;8703;48.996;9.594;2023-04-24T03:45:49;0.17;;;0.17;;
17175;SDS011;8703;48.996;9.594;2023-04-24T03:48:16;0.17;;;0.17;;
17175;SDS011;8703;48.996;9.594;2023-04-24T03:50:44;0.20;;;0.20;;
17175;SDS011;8703;48.996;9.594;2023-04-24T03:53:11;0.10;;;0.10;;
17175;SDS011;8703;48.996;9.594;2023-04-24T03:55:38;0.20;;;0.20;;
17175;SDS011;8703;48.996;9.594;2023-04-24T03:58:07;0.30;;;0.30;;
17175;SDS011;8703;48.996;9.594;2023-04-24T04:00:34;0.20;;;0.20;;
17175;SDS011;8703;48.996;9.594;2023-04-24T04:03:02;0.10;;;0.10;;
17175;SDS011;8703;48.996;9.594;2023-04-24T04:05:30;0.10;;;0.10;;
17175;SDS011;8703;48.996;9.594;2023-04-24T04:07:57;0.20;;;0.20;;
17175;SDS011;8703;48.996;9.594;2023-04-24T04:10:25;0.10;;;0.10;;
17175;SDS011;8703;48.996;9.594;2023-04-24T04:12:52;0.20;;;0.20;;
17175;SDS011;8703;48.996;9.594;2023-04-24T04:15:21;0.10;;;0.10;;
17175;SDS011;8703;48.996;9.594;2023-04-24T04:17:48;0.20;;;0.20;;
17175;SDS011;8703;48.996;9.594;2023-04-24T04:20:15;0.20;;;0.20;;
17175;SDS011;8703;48.996;9.594;2023-04-24T04:22:43;0.20;;;0.20;;
17175;SDS011;8703;48.996;9.594;2023-04-24T04:25:10;0.20;;;0.20;;
17175;SDS011;8703;48.996;9.594;2023-04-24T04:27:38;0.20;;;0.20;;
17175;SDS011;8703;48.996;9.594;2023-04-24T04:30:07;0.30;;;0.30;;
17175;SDS011;8703;48.996;9.594;2023-04-24T04:32:36;0.20;;;0.20;;
17175;SDS011;8703;48.996;9.594;2023-04-24T04:35:03;0.20;;;0.20;;
17175;SDS011;8703;48.996;9.594;2023-04-24T04:37:31;0.20;;;0.20;;
17175;SDS011;8703;48.996;9.594;2023-04-24T04:39:59;0.10;;;0.10;;
17175;SDS011;8703;48.996;9.594;2023-04-24T04:42:31;0.20;;;0.20;;
17175;SDS011;8703;48.996;9.594;2023-04-24T04:44:59;0.20;;;0.20;;
17175;SDS011;8703;48.996;9.594;2023-04-24T04:47:27;0.20;;;0.20;;
17175;SDS011;8703;48.996;9.594;2023-04-24T04:49:58;0.20;;;0.20;;
17175;SDS011;8703;48.996;9.594;2023-04-24T04:52:25;0.20;;;0.20;;
17175;SDS011;8703;48.996;9.594;2023-04-24T04:54:52;0.20;;;0.20;;
17175;SDS011;8703;48.996;9.594;2023-04-24T04:57:20;0.30;;;0.30;;
17175;SDS011;8703;48.996;9.594;2023-04-24T04:59:47;0.20;;;0.20;;
17175;SDS011;8703;48.996;9.594;2023-04-24T05:02:14;0.20;;;0.20;;
17175;SDS011;8703;48.996;9.594;2023-04-24T05:04:42;0.20;;;0.20;;
17175;SDS011;8703;48.996;9.594;2023-04-24T05:07:11;0.10;;;0.10;;
17175;SDS011;8703;48.996;9.594;2023-04-24T05:09:38;0.10;;;0.10;;
17175;SDS011;8703;48.996;9.594;2023-04-24T05:12:06;0.20;;;0.20;;
17175;SDS011;8703;48.996;9.594;2023-04-24T05:14:33;0.13;;;0.13;;
17175;SDS011;8703;48.996;9.594;2023-04-24T05:17:00;0.20;;;0.20;;
17175;SDS011;8703;48.996;9.594;2023-04-24T05:19:28;0.20;;;0.20;;
17175;SDS011;8703;48.996;9.594;2023-04-24T05:21:57;0.20;;;0.20;;
17175;SDS011;8703;48.996;9.594;2023-04-24T05:24:29;0.10;;;0.10;;
17175;SDS011;8703;48.996;9.594;2023-04-24T05:26:56;0.17;;;0.17;;
17175;SDS011;8703;48.996;9.594;2023-04-24T05:29:24;0.10;;;0.10;;
17175;SDS011;8703;48.996;9.594;2023-04-24T05:31:52;0.20;;;0.20;;
17175;SDS011;8703;48.996;9.594;2023-04-24T05:34:19;0.20;;;0.20;;
17175;SDS011;8703;48.996;9.594;2023-04-24T05:36:47;0.10;;;0.10;;
17175;SDS011;8703;48.996;9.594;2023-04-24T05:39:15;0.20;;;0.20;;
17175;SDS011;8703;48.996;9.594;2023-04-24T05:41:44;0.30;;;0.30;;
17175;SDS011;8703;48.996;9.594;2023-04-24T05:44:11;0.20;;;0.20;;
17175;SDS011;8703;48.996;9.594;2023-04-24T05:46:39;0.20;;;0.20;;
17175;SDS011;8703;48.996;9.594;2023-04-24T05:49:06;0.20;;;0.20;;
17175;SDS011;8703;48.996;9.594;2023-04-24T05:51:33;0.37;;;0.37;;
17175;SDS011;8703;48.996;9.594;2023-04-24T05:54:00;0.20;;;0.20;;
17175;SDS011;8703;48.996;9.594;2023-04-24T05:56:28;0.30;;;0.30;;
17175;SDS011;8703;48.996;9.594;2023-04-24T05:58:57;0.20;;;0.20;;
17175;SDS011;8703;48.996;9.594;2023-04-24T06:01:24;0.17;;;0.17;;
17175;SDS011;8703;48.996;9.594;2023-04-24T06:03:52;0.20;;;0.20;;
17175;SDS011;8703;48.996;9.594;2023-04-24T06:06:19;0.20;;;0.20;;
17175;SDS011;8703;48.996;9.594;2023-04-24T06:08:46;0.10;;;0.10;;
17175;SDS011;8703;48.996;9.594;2023-04-24T06:11:14;0.10;;;0.10;;
17175;SDS011;8703;48.996;9.594;2023-04-24T06:13:41;0.30;;;0.30;;
17175;SDS011;8703;48.996;9.594;2023-04-24T06:16:10;0.30;;;0.30;;
17175;SDS011;8703;48.996;9.594;2023-04-24T06:18:38;0.10;;;0.10;;
17175;SDS011;8703;48.996;9.594;2023-04-24T06:21:05;0.20;;;0.20;;
17175;SDS011;8703;48.996;9.594;2023-04-24T06:23:32;0.10;;;0.10;;
17175;SDS011;8703;48.996;9.594;2023-04-24T06:26:00;0.20;;;0.20;;
17175;SDS011;8703;48.996;9.594;2023-04-24T06:28:27;0.10;;;0.10;;
17175;SDS011;8703;48.996;9.594;2023-04-24T06:30:54;0.20;;;0.20;;
17175;SDS011;8703;48.996;9.594;2023-04-24T06:33:23;1.47;;;1.37;;
17175;SDS011;8703;48.996;9.594;2023-04-24T06:35:50;0.20;;;0.20;;
17175;SDS011;8703;48.996;9.594;2023-04-24T06:38:18;0.10;;;0.10;;
17175;SDS011;8703;48.996;9.594;2023-04-24T06:40:45;0.20;;;0.20;;
17175;SDS011;8703;48.996;9.594;2023-04-24T06:43:13;0.17;;;0.17;;
17175;SDS011;8703;48.996;9.594;2023-04-24T06:45:40;0.20;;;0.20;;
17175;SDS011;8703;48.996;9.594;2023-04-24T06:48:08;0.20;;;0.20;;
17175;SDS011;8703;48.996;9.594;2023-04-24T06:50:37;0.10;;;0.10;;
17175;SDS011;8703;48.996;9.594;2023-04-24T06:53:04;0.20;;;0.20;;
17175;SDS011;8703;48.996;9.594;2023-04-24T06:55:32;0.27;;;0.27;;
17175;SDS011;8703;48.996;9.594;2023-04-24T06:57:59;0.27;;;0.27;;
17175;SDS011;8703;48.996;9.594;2023-04-24T07:00:26;0.20;;;0.20;;
17175;SDS011;8703;48.996;9.594;2023-04-24T07:02:55;0.13;;;0.13;;
17175;SDS011;8703;48.996;9.594;2023-04-24T07:05:22;0.20;;;0.20;;
17175;SDS011;8703;48.996;9.594;2023-04-24T07:07:51;0.10;;;0.10;;
17175;SDS011;8703;48.996;9.594;2023-04-24T07:10:18;0.20;;;0.20;;
17175;SDS011;8703;48.996;9.594;2023-04-24T07:12:46;0.20;;;0.20;;
17175;SDS011;8703;48.996;9.594;2023-04-24T07:15:13;0.23;;;0.23;;
17175;SDS011;8703;48.996;9.594;2023-04-24T07:17:41;0.20;;;0.20;;
17175;SDS011;8703;48.996;9.594;2023-04-24T07:20:09;0.47;;;0.47;;
17175;SDS011;8703;48.996;9.594;2023-04-24T07:22:39;0.17;;;0.17;;
17175;SDS011;8703;48.996;9.594;2023-04-24T07:25:08;0.20;;;0.20;;
17175;SDS011;8703;48.996;9.594;2023-04-24T07:27:35;0.20;;;0.20;;
17175;SDS011;8703;48.996;9.594;2023-04-24T07:30:03;0.10;;;0.10;;
17175;SDS011;8703;48.996;9.594;2023-04-24T07:32:31;0.13;;;0.13;;
17175;SDS011;8703;48.996;9.594;2023-04-24T07:35:00;0.10;;;0.10;;
17175;SDS011;8703;48.996;9.594;2023-04-24T07:37:27;0.10;;;0.10;;
17175;SDS011;8703;48.996;9.594;2023-04-24T07:39:55;0.20;;;0.20;;
17175;SDS011;8703;48.996;9.594;2023-04-24T07:42:24;0.20;;;0.20;;
17175;SDS011;8703;48.996;9.594;2023-04-24T07:44:51;0.20;;;0.20;;
17175;SDS011;8703;48.996;9.594;2023-04-24T07:47:18;0.20;;;0.20;;
17175;SDS011;8703;48.996;9.594;2023-04-24T07:49:46;0.20;;;0.20;;
17175;SDS011;8703;48.996;9.594;2023-04-24T07:52:13;0.10;;;0.10;;
17175;SDS011;8703;48.996;9.594;2023-04-24T07:54:40;0.20;;;0.20;;
17175;SDS011;8703;48.996;9.594;2023-04-24T07:57:08;0.20;;;0.20;;
17175;SDS011;8703;48.996;9.594;2023-04-24T07:59:37;0.20;;;0.20;;
17175;SDS011;8703;48.996;9.594;2023-04-24T08:02:05;0.17;;;0.17;;
17175;SDS011;8703;48.996;9.594;2023-04-24T08:04:32;0.10;;;0.10;;
17175;SDS011;8703;48.996;9.594;2023-04-24T08:06:59;0.30;;;0.30;;
17175;SDS011;8703;48.996;9.594;2023-04-24T08:09:27;0.20;;;0.20;;
17175;SDS011;8703;48.996;9.594;2023-04-24T08:11:54;0.20;;;0.20;;
17175;SDS011;8703;48.996;9.594;2023-04-24T08:14:22;0.20;;;0.20;;
17175;SDS011;8703;48.996;9.594;2023-04-24T08:16:51;0.20;;;0.20;;
17175;SDS011;8703;48.996;9.594;2023-04-24T08:19:20;0.20;;;0.20;;
17175;SDS011;8703;48.996;9.594;2023-04-24T08:21:47;0.20;;;0.20;;
17175;SDS011;8703;48.996;9.594;2023-04-24T08:24:14;0.13;;;0.13;;
17175;SDS011;8703;48.996;9.594;2023-04-24T08:26:42;0.13;;;0.13;;
17175;SDS011;8703;48.996;9.594;2023-04-24T08:29:09;0.20;;;0.20;;
17175;SDS011;8703;48.996;9.594;2023-04-24T08:31:37;0.13;;;0.13;;
17175;SDS011;8703;48.996;9.594;2023-04-24T08:34:05;0.13;;;0.13;;
17175;SDS011;8703;48.996;9.594;2023-04-24T08:36:33;0.10;;;0.10;;
17175;SDS011;8703;48.996;9.594;2023-04-24T08:39:00;0.20;;;0.20;;
17175;SDS011;8703;48.996;9.594;2023-04-24T08:41:27;0.20;;;0.20;;
17175;SDS011;8703;48.996;9.594;2023-04-24T08:43:55;0.10;;;0.10;;
17175;SDS011;8703;48.996;9.594;2023-04-24T08:46:23;0.20;;;0.20;;
17175;SDS011;8703;48.996;9.594;2023-04-24T08:48:51;0.20;;;0.20;;
17175;SDS011;8703;48.996;9.594;2023-04-24T08:51:20;0.20;;;0.20;;
17175;SDS011;8703;48.996;9.594;2023-04-24T08:53:48;0.20;;;0.20;;
17175;SDS011;8703;48.996;9.594;2023-04-24T08:56:16;0.20;;;0.20;;
17175;SDS011;8703;48.996;9.594;2023-04-24T08:58:43;0.20;;;0.20;;
17175;SDS011;8703;48.996;9.594;2023-04-24T09:01:11;0.20;;;0.20;;
17175;SDS011;8703;48.996;9.594;2023-04-24T09:03:39;0.20;;;0.20;;
17175;SDS011;8703;48.996;9.594;2023-04-24T09:06:06;0.27;;;0.27;;
17175;SDS011;8703;48.996;9.594;2023-04-24T09:08:36;1.83;;;1.10;;
17175;SDS011;8703;48.996;9.594;2023-04-24T09:11:04;1.40;;;1.10;;
17175;SDS011;8703;48.996;9.594;2023-04-24T09:13:32;2.00;;;1.10;;
17175;SDS011;8703;48.996;9.594;2023-04-24T09:15:59;1.63;;;1.10;;
17175;SDS011;8703;48.996;9.594;2023-04-24T09:18:27;2.70;;;0.90;;
17175;SDS011;8703;48.996;9.594;2023-04-24T09:20:58;1.53;;;1.17;;
17175;SDS011;8703;48.996;9.594;2023-04-24T09:23:27;1.37;;;1.00;;
17175;SDS011;8703;48.996;9.594;2023-04-24T09:25:56;1.87;;;1.00;;
17175;SDS011;8703;48.996;9.594;2023-04-24T09:28:26;2.07;;;0.80;;
17175;SDS011;8703;48.996;9.594;2023-04-24T09:31:01;1.83;;;1.33;;
17175;SDS011;8703;48.996;9.594;2023-04-24T09:33:34;2.23;;;1.17;;
17175;SDS011;8703;48.996;9.594;2023-04-24T09:36:01;2.43;;;1.10;;
17175;SDS011;8703;48.996;9.594;2023-04-24T09:38:33;1.53;;;0.90;;
17175;SDS011;8703;48.996;9.594;2023-04-24T09:41:04;1.77;;;1.00;;
17175;SDS011;8703;48.996;9.594;2023-04-24T09:43:32;2.10;;;1.17;;
17175;SDS011;8703;48.996;9.594;2023-04-24T09:46:04;3.20;;;1.00;;
17175;SDS011;8703;48.996;9.594;2023-04-24T09:48:34;1.43;;;1.10;;
17175;SDS011;8703;48.996;9.594;2023-04-24T09:51:03;1.80;;;1.10;;
17175;SDS011;8703;48.996;9.594;2023-04-24T09:53:32;1.87;;;1.17;;
17175;SDS011;8703;48.996;9.594;2023-04-24T09:56:03;2.53;;;1.17;;
17175;SDS011;8703;48.996;9.594;2023-04-24T09:58:34;3.07;;;1.10;;
17175;SDS011;8703;48.996;9.594;2023-04-24T10:01:02;1.50;;;1.20;;
17175;SDS011;8703;48.996;9.594;2023-04-24T10:03:30;2.40;;;1.10;;
17175;SDS011;8703;48.996;9.594;2023-04-24T10:05:58;1.93;;;1.13;;
17175;SDS011;8703;48.996;9.594;2023-04-24T10:08:26;1.80;;;1.20;;
17175;SDS011;8703;48.996;9.594;2023-04-24T10:11:00;2.10;;;1.20;;
17175;SDS011;8703;48.996;9.594;2023-04-24T10:13:29;1.87;;;1.00;;
17175;SDS011;8703;48.996;9.594;2023-04-24T10:15:57;1.33;;;1.00;;
17175;SDS011;8703;48.996;9.594;2023-04-24T10:18:25;1.80;;;0.90;;
17175;SDS011;8703;48.996;9.594;2023-04-24T10:20:53;1.50;;;1.00;;
17175;SDS011;8703;48.996;9.594;2023-04-24T10:23:21;2.53;;;1.00;;
17175;SDS011;8703;48.996;9.594;2023-04-24T10:25:50;1.73;;;1.00;;
17175;SDS011;8703;48.996;9.594;2023-04-24T10:28:19;1.27;;;0.90;;
17175;SDS011;8703;48.996;9.594;2023-04-24T10:30:48;1.20;;;0.97;;
17175;SDS011;8703;48.996;9.594;2023-04-24T10:33:16;1.87;;;1.03;;
17175;SDS011;8703;48.996;9.594;2023-04-24T10:35:45;2.17;;;1.00;;
17175;SDS011;8703;48.996;9.594;2023-04-24T10:38:15;1.50;;;0.97;;
17175;SDS011;8703;48.996;9.594;2023-04-24T10:40:44;1.40;;;1.00;;
17175;SDS011;8703;48.996;9.594;2023-04-24T10:43:13;1.20;;;1.07;;
17175;SDS011;8703;48.996;9.594;2023-04-24T10:45:59;1.83;;;1.20;;
17175;SDS011;8703;48.996;9.594;2023-04-24T10:48:28;2.00;;;1.00;;
17175;SDS011;8703;48.996;9.594;2023-04-24T10:50:55;1.43;;;1.20;;
17175;SDS011;8703;48.996;9.594;2023-04-24T10:53:23;1.87;;;1.20;;
17175;SDS011;8703;48.996;9.594;2023-04-24T10:55:57;1.87;;;0.97;;
17175;SDS011;8703;48.996;9.594;2023-04-24T10:58:35;1.80;;;1.13;;
17175;SDS011;8703;48.996;9.594;2023-04-24T11:01:05;2.47;;;1.10;;
17175;SDS011;8703;48.996;9.594;2023-04-24T11:03:33;2.47;;;1.10;;
17175;SDS011;8703;48.996;9.594;2023-04-24T11:06:01;1.60;;;1.00;;
17175;SDS011;8703;48.996;9.594;2023-04-24T11:08:30;1.53;;;0.97;;
17175;SDS011;8703;48.996;9.594;2023-04-24T11:11:07;5.00;;;1.50;;
17175;SDS011;8703;48.996;9.594;2023-04-24T11:16:36;1.80;;;1.30;;
17175;SDS011;8703;48.996;9.594;2023-04-24T11:19:06;1.40;;;1.20;;
17175;SDS011;8703;48.996;9.594;2023-04-24T11:21:41;2.33;;;1.30;;
17175;SDS011;8703;48.996;9.594;2023-04-24T11:24:28;4.83;;;1.50;;
17175;SDS011;8703;48.996;9.594;2023-04-24T11:26:57;2.50;;;1.53;;
17175;SDS011;8703;48.996;9.594;2023-04-24T11:29:40;1.60;;;1.50;;
17175;SDS011;8703;48.996;9.594;2023-04-24T11:32:14;1.60;;;1.50;;
17175;SDS011;8703;48.996;9.594;2023-04-24T11:34:46;2.47;;;1.50;;
17175;SDS011;8703;48.996;9.594;2023-04-24T11:37:14;2.13;;;1.20;;
17175;SDS011;8703;48.996;9.594;2023-04-24T11:39:42;3.77;;;1.47;;
17175;SDS011;8703;48.996;9.594;2023-04-24T11:42:09;3.07;;;1.60;;
17175;SDS011;8703;48.996;9.594;2023-04-24T11:44:37;1.50;;;1.30;;
17175;SDS011;8703;48.996;9.594;2023-04-24T11:47:05;2.47;;;1.40;;
17175;SDS011;8703;48.996;9.594;2023-04-24T11:49:33;4.03;;;1.70;;
17175;SDS011;8703;48.996;9.594;2023-04-24T11:52:02;3.07;;;1.60;;
17175;SDS011;8703;48.996;9.594;2023-04-24T11:54:30;4.50;;;1.67;;
17175;SDS011;8703;48.996;9.594;2023-04-24T11:56:57;2.33;;;1.40;;
17175;SDS011;8703;48.996;9.594;2023-04-24T11:59:24;2.20;;;1.20;;
17175;SDS011;8703;48.996;9.594;2023-04-24T12:01:52;2.00;;;1.37;;
17175;SDS011;8703;48.996;9.594;2023-04-24T12:04:20;4.83;;;1.50;;
17175;SDS011;8703;48.996;9.594;2023-04-24T12:07:00;2.70;;;1.30;;
17175;SDS011;8703;48.996;9.594;2023-04-24T12:09:27;3.17;;;1.43;;
17175;SDS011;8703;48.996;9.594;2023-04-24T12:11:56;2.67;;;1.50;;
17175;SDS011;8703;48.996;9.594;2023-04-24T12:14:23;1.40;;;1.23;;
17175;SDS011;8703;48.996;9.594;2023-04-24T12:16:51;1.97;;;1.40;;
17175;SDS011;8703;48.996;9.594;2023-04-24T12:19:21;2.33;;;1.30;;
17175;SDS011;8703;48.996;9.594;2023-04-24T12:22:00;1.70;;;1.40;;
17175;SDS011;8703;48.996;9.594;2023-04-24T12:24:30;2.40;;;1.43;;
17175;SDS011;8703;48.996;9.594;2023-04-24T12:26:57;2.17;;;1.50;;
17175;SDS011;8703;48.996;9.594;2023-04-24T12:29:26;1.93;;;1.40;;
17175;SDS011;8703;48.996;9.594;2023-04-24T12:31:53;2.15;;;1.67;;
17175;SDS011;8703;48.996;9.594;2023-04-24T12:34:23;1.70;;;1.60;;
17175;SDS011;8703;48.996;9.594;2023-04-24T12:36:51;2.30;;;1.60;;
17175;SDS011;8703;48.996;9.594;2023-04-24T12:39:19;2.07;;;1.40;;
17175;SDS011;8703;48.996;9.594;2023-04-24T12:41:54;2.13;;;1.50;;
17175;SDS011;8703;48.996;9.594;2023-04-24T12:44:29;1.80;;;1.70;;
17175;SDS011;8703;48.996;9.594;2023-04-24T12:46:57;1.63;;;1.30;;
17175;SDS011;8703;48.996;9.594;2023-04-24T12:49:26;2.40;;;1.70;;
17175;SDS011;8703;48.996;9.594;2023-04-24T12:51:53;2.17;;;1.70;;
17175;SDS011;8703;48.996;9.594;2023-04-24T12:54:21;2.50;;;1.70;;
17175;SDS011;8703;48.996;9.594;2023-04-24T12:56:48;1.50;;;1.40;;
17175;SDS011;8703;48.996;9.594;2023-04-24T12:59:16;2.20;;;1.60;;
17175;SDS011;8703;48.996;9.594;2023-04-24T13:01:43;2.83;;;1.60;;
17175;SDS011;8703;48.996;9.594;2023-04-24T13:04:11;2.03;;;1.70;;
17175;SDS011;8703;48.996;9.594;2023-04-24T13:06:39;3.00;;;1.60;;
17175;SDS011;8703;48.996;9.594;2023-04-24T13:09:07;1.90;;;1.70;;
17175;SDS011;8703;48.996;9.594;2023-04-24T13:11:34;1.70;;;1.40;;
17175;SDS011;8703;48.996;9.594;2023-04-24T13:14:02;2.23;;;1.90;;
17175;SDS011;8703;48.996;9.594;2023-04-24T13:16:29;4.37;;;1.80;;
17175;SDS011;8703;48.996;9.594;2023-04-24T13:18:56;1.93;;;1.73;;
17175;SDS011;8703;48.996;9.594;2023-04-24T13:21:24;3.97;;;2.00;;
17175;SDS011;8703;48.996;9.594;2023-04-24T13:23:53;2.23;;;1.80;;
17175;SDS011;8703;48.996;9.594;2023-04-24T13:26:21;2.13;;;1.90;;
17175;SDS011;8703;48.996;9.594;2023-04-24T13:28:48;1.93;;;1.70;;
17175;SDS011;8703;48.996;9.594;2023-04-24T13:31:16;2.93;;;1.90;;
17175;SDS011;8703;48.996;9.594;2023-04-24T13:33:43;7.10;;;2.00;;
17175;SDS011;8703;48.996;9.594;2023-04-24T13:36:11;2.23;;;1.57;;
17175;SDS011;8703;48.996;9.594;2023-04-24T13:38:38;2.72;;;2.20;;
17175;SDS011;8703;48.996;9.594;2023-04-24T13:41:07;2.65;;;2.00;;
17175;SDS011;8703;48.996;9.594;2023-04-24T13:43:34;2.72;;;1.80;;
17175;SDS011;8703;48.996;9.594;2023-04-24T13:46:02;1.80;;;1.70;;
17175;SDS011;8703;48.996;9.594;2023-04-24T13:48:30;3.00;;;1.92;;
17175;SDS011;8703;48.996;9.594;2023-04-24T13:50:57;2.28;;;1.80;;
17175;SDS011;8703;48.996;9.594;2023-04-24T13:53:24;2.75;;;1.80;;
17175;SDS011;8703;48.996;9.594;2023-04-24T13:55:52;1.90;;;1.70;;
17175;SDS011;8703;48.996;9.594;2023-04-24T13:58:21;2.92;;;1.77;;
17175;SDS011;8703;48.996;9.594;2023-04-24T14:00:48;2.83;;;2.03;;
17175;SDS011;8703;48.996;9.594;2023-04-24T14:03:16;3.08;;;2.13;;
17175;SDS011;8703;48.996;9.594;2023-04-24T14:05:43;2.90;;;2.20;;
17175;SDS011;8703;48.996;9.594;2023-04-24T14:08:10;2.88;;;2.05;;
17175;SDS011;8703;48.996;9.594;2023-04-24T14:10:38;2.70;;;2.15;;
17175;SDS011;8703;48.996;9.594;2023-04-24T14:13:05;2.90;;;2.22;;
17175;SDS011;8703;48.996;9.594;2023-04-24T14:15:34;3.10;;;1.98;;
17175;SDS011;8703;48.996;9.594;2023-04-24T14:18:02;2.40;;;1.90;;
17175;SDS011;8703;48.996;9.594;2023-04-24T14:20:30;3.72;;;1.70;;
17175;SDS011;8703;48.996;9.594;2023-04-24T14:22:57;2.05;;;1.80;;
17175;SDS011;8703;48.996;9.594;2023-04-24T14:25:24;1.85;;;1.60;;
17175;SDS011;8703;48.996;9.594;2023-04-24T14:27:52;3.22;;;1.52;;
17175;SDS011;8703;48.996;9.594;2023-04-24T14:30:19;2.58;;;1.77;;
17175;SDS011;8703;48.996;9.594;2023-04-24T14:32:48;2.83;;;1.42;;
17175;SDS011;8703;48.996;9.594;2023-04-24T14:35:16;2.17;;;1.80;;
17175;SDS011;8703;48.996;9.594;2023-04-24T14:37:43;2.63;;;1.90;;
17175;SDS011;8703;48.996;9.594;2023-04-24T14:40:11;4.50;;;1.90;;
17175;SDS011;8703;48.996;9.594;2023-04-24T14:42:38;2.63;;;1.90;;
17175;SDS011;8703;48.996;9.594;2023-04-24T14:45:06;2.92;;;2.13;;
17175;SDS011;8703;48.996;9.594;2023-04-24T14:47:34;2.33;;;1.90;;
17175;SDS011;8703;48.996;9.594;2023-04-24T14:50:04;2.17;;;1.98;;
17175;SDS011;8703;48.996;9.594;2023-04-24T14:52:33;2.63;;;2.35;;
17175;SDS011;8703;48.996;9.594;2023-04-24T14:55:00;3.00;;;2.10;;
17175;SDS011;8703;48.996;9.594;2023-04-24T14:57:28;2.27;;;2.00;;
17175;SDS011;8703;48.996;9.594;2023-04-24T14:59:55;3.63;;;2.13;;
17175;SDS011;8703;48.996;9.594;2023-04-24T15:02:23;2.10;;;1.90;;
17175;SDS011;8703;48.996;9.594;2023-04-24T15:04:50;2.40;;;1.80;;
17175;SDS011;8703;48.996;9.594;2023-04-24T15:07:19;2.23;;;1.80;;
17175;SDS011;8703;48.996;9.594;2023-04-24T15:09:46;2.50;;;1.90;;